Genesis — D5DL4 — position and weather

sailwx.info

Track history (hours):
 
Tides and Currents Weather Stations Pressure Air Temp Water Temp Dewpoint Dewpoint Depression Visibility Wind Speed Wind Dir Waves Ship Positions

Genesis

Last reported at 2017-Nov-23 10:18 UTC. Time now 2017-Nov-25 07:48 UTC.
Position N 53°41' E 000°33'.

Length 229 m; draft 8.6 m.

Type: Ship. MMSI: 636015907.

Date/timePositionNaut miles runAvg speedWind from/ knotsBaromVisibWave heightAir tempDewpointWater temp
2017-Nov-23 10:18N 53°41' E 000°33'1212.1
2017-Nov-23 09:17N 53°32' E 000°19'3 9.9
2017-Nov-23 09:00N 53°33' E 000°14'510.1
2017-Nov-23 08:30N 53°34' E 000°06'611.7
2017-Nov-23 08:00N 53°36' W 000°03'510.0
2017-Nov-23 07:30N 53°38' W 000°11'1 1.9
2017-Nov-23 07:00N 53°39' W 000°12'0 0.0
2017-Nov-23 06:30N 53°39' W 000°12'0 0.0
2017-Nov-23 06:00N 53°39' W 000°12'0 0.0
2017-Nov-23 05:30N 53°39' W 000°12'0 0.0
2017-Nov-23 05:00N 53°39' W 000°12'0 0.0
2017-Nov-23 04:27N 53°39' W 000°12'0 0.0
2017-Nov-23 04:00N 53°39' W 000°12'0 0.0
2017-Nov-23 03:30N 53°39' W 000°12'0 0.0
2017-Nov-23 03:00N 53°39' W 000°12'0 0.0
2017-Nov-23 02:30N 53°39' W 000°12'0 0.0
2017-Nov-23 02:00N 53°39' W 000°12'0 0.0
2017-Nov-23 01:30N 53°39' W 000°12'0 0.0
2017-Nov-23 01:00N 53°39' W 000°12'0 0.0
2017-Nov-23 00:27N 53°39' W 000°12'0 0.0
2017-Nov-23 00:00N 53°39' W 000°12'0 0.0
2017-Nov-22 23:30N 53°39' W 000°12'0 0.0
2017-Nov-22 23:00N 53°39' W 000°12'0 0.0
2017-Nov-22 22:27N 53°39' W 000°12'0 0.0
2017-Nov-22 22:00N 53°39' W 000°12'0 0.0
2017-Nov-22 21:30N 53°39' W 000°12'0 0.0
2017-Nov-22 21:00N 53°39' W 000°12'0 0.0
2017-Nov-22 20:30N 53°39' W 000°12'0 0.0
2017-Nov-22 20:00N 53°39' W 000°12'0 0.0
2017-Nov-22 19:30N 53°39' W 000°12'  
2017-Nov-20 00:30N 53°39' W 000°12'0 0.0
2017-Nov-20 00:00N 53°39' W 000°12'0 0.0
2017-Nov-19 23:30N 53°39' W 000°12'0 0.0
2017-Nov-19 23:00N 53°39' W 000°12'0 0.0
2017-Nov-19 22:30N 53°39' W 000°12'0 0.0
2017-Nov-19 22:00N 53°39' W 000°12'0 0.0
2017-Nov-19 21:30N 53°39' W 000°12'0 0.0
2017-Nov-19 21:00N 53°39' W 000°12'0 0.0
2017-Nov-19 20:30N 53°39' W 000°12'0 0.0
2017-Nov-19 19:57N 53°39' W 000°12'0 0.0
2017-Nov-19 19:30N 53°39' W 000°12'0 0.0
2017-Nov-19 19:00N 53°39' W 000°12'0 0.0
2017-Nov-19 18:30N 53°39' W 000°12'0 0.0
2017-Nov-19 17:57N 53°39' W 000°12'0 0.0
2017-Nov-19 17:30N 53°39' W 000°12'0 0.0
2017-Nov-19 17:00N 53°39' W 000°12'0 0.0
2017-Nov-19 16:30N 53°39' W 000°12'0 0.0
2017-Nov-19 16:00N 53°39' W 000°12'0 0.0
2017-Nov-19 15:30N 53°39' W 000°12'0 0.0
2017-Nov-19 15:00N 53°39' W 000°12'0 0.0
2017-Nov-19 14:30N 53°39' W 000°12'0 0.0
2017-Nov-19 14:00N 53°39' W 000°12'0 0.0
2017-Nov-19 13:27N 53°39' W 000°12'0 0.0
2017-Nov-19 13:00N 53°39' W 000°12'0 0.0
2017-Nov-19 12:30N 53°39' W 000°12'0 0.0
2017-Nov-19 12:00N 53°39' W 000°12'0 0.0
2017-Nov-19 11:30N 53°39' W 000°12'0 0.0
2017-Nov-19 11:00N 53°39' W 000°12'0 0.0
2017-Nov-19 10:30N 53°39' W 000°12'0 0.0
2017-Nov-19 10:00N 53°39' W 000°12'0 0.0
2017-Nov-19 09:30N 53°39' W 000°12'0 0.0
2017-Nov-19 09:00N 53°39' W 000°12'0 0.0
2017-Nov-19 08:30N 53°39' W 000°12'0 0.0
2017-Nov-19 08:00N 53°39' W 000°12'0 0.0
2017-Nov-19 07:30N 53°39' W 000°12'0 0.0
2017-Nov-19 07:00N 53°39' W 000°12'0 0.0
2017-Nov-19 06:30N 53°39' W 000°12'0 0.6
2017-Nov-19 06:00N 53°39' W 000°12'1 2.3
2017-Nov-19 05:30N 53°38' W 000°10'3 5.4
2017-Nov-19 05:00N 53°37' W 000°06'4 7.9
2017-Nov-19 04:30N 53°37' E 000°01'611.3
2017-Nov-19 04:00N 53°33' E 000°09'510.3
2017-Nov-19 03:30N 53°35' E 000°17'611.4
2017-Nov-19 03:00N 53°39' E 000°23'1 1.8
2017-Nov-19 02:30N 53°40' E 000°22'1 1.0
2017-Nov-19 02:00N 53°40' E 000°23'4 7.9
2017-Nov-19 01:28N 53°44' E 000°26'3 6.6
2017-Nov-19 00:59N 53°46' E 000°30'1 0.5
2017-Nov-18 23:38N 53°46' E 000°29'0 0.8
2017-Nov-18 23:27N 53°46' E 000°29'  
Track history (hours):
 
Tides and Currents Weather Stations Pressure Air Temp Water Temp Dewpoint Dewpoint Depression Visibility Wind Speed Wind Dir Waves Ship Positions

Genesis

Last reported at 2017-Nov-23 10:18 UTC. Time now 2017-Nov-25 07:48 UTC.
Position N 53°41' E 000°33'.

Length 229 m; draft 8.6 m.

Type: Ship. MMSI: 636015907.

Date/timePositionNaut miles runAvg speedWind from/ knotsBaromVisibWave heightAir tempDewpointWater temp
2017-Nov-23 10:18N 53°41' E 000°33'1212.1
2017-Nov-23 09:17N 53°32' E 000°19'3 9.9
2017-Nov-23 09:00N 53°33' E 000°14'510.1
2017-Nov-23 08:30N 53°34' E 000°06'611.7
2017-Nov-23 08:00N 53°36' W 000°03'510.0
2017-Nov-23 07:30N 53°38' W 000°11'1 1.9
2017-Nov-23 07:00N 53°39' W 000°12'0 0.0
2017-Nov-23 06:30N 53°39' W 000°12'0 0.0
2017-Nov-23 06:00N 53°39' W 000°12'0 0.0
2017-Nov-23 05:30N 53°39' W 000°12'0 0.0
2017-Nov-23 05:00N 53°39' W 000°12'0 0.0
2017-Nov-23 04:27N 53°39' W 000°12'0 0.0
2017-Nov-23 04:00N 53°39' W 000°12'0 0.0
2017-Nov-23 03:30N 53°39' W 000°12'0 0.0
2017-Nov-23 03:00N 53°39' W 000°12'0 0.0
2017-Nov-23 02:30N 53°39' W 000°12'0 0.0
2017-Nov-23 02:00N 53°39' W 000°12'0 0.0
2017-Nov-23 01:30N 53°39' W 000°12'0 0.0
2017-Nov-23 01:00N 53°39' W 000°12'0 0.0
2017-Nov-23 00:27N 53°39' W 000°12'0 0.0
2017-Nov-23 00:00N 53°39' W 000°12'0 0.0
2017-Nov-22 23:30N 53°39' W 000°12'0 0.0
2017-Nov-22 23:00N 53°39' W 000°12'0 0.0
2017-Nov-22 22:27N 53°39' W 000°12'0 0.0
2017-Nov-22 22:00N 53°39' W 000°12'0 0.0
2017-Nov-22 21:30N 53°39' W 000°12'0 0.0
2017-Nov-22 21:00N 53°39' W 000°12'0 0.0
2017-Nov-22 20:30N 53°39' W 000°12'0 0.0
2017-Nov-22 20:00N 53°39' W 000°12'0 0.0
2017-Nov-22 19:30N 53°39' W 000°12'  
2017-Nov-20 00:30N 53°39' W 000°12'0 0.0
2017-Nov-20 00:00N 53°39' W 000°12'0 0.0
2017-Nov-19 23:30N 53°39' W 000°12'0 0.0
2017-Nov-19 23:00N 53°39' W 000°12'0 0.0
2017-Nov-19 22:30N 53°39' W 000°12'0 0.0
2017-Nov-19 22:00N 53°39' W 000°12'0 0.0
2017-Nov-19 21:30N 53°39' W 000°12'0 0.0
2017-Nov-19 21:00N 53°39' W 000°12'0 0.0
2017-Nov-19 20:30N 53°39' W 000°12'0 0.0
2017-Nov-19 19:57N 53°39' W 000°12'0 0.0
2017-Nov-19 19:30N 53°39' W 000°12'0 0.0
2017-Nov-19 19:00N 53°39' W 000°12'0 0.0
2017-Nov-19 18:30N 53°39' W 000°12'0 0.0
2017-Nov-19 17:57N 53°39' W 000°12'0 0.0
2017-Nov-19 17:30N 53°39' W 000°12'0 0.0
2017-Nov-19 17:00N 53°39' W 000°12'0 0.0
2017-Nov-19 16:30N 53°39' W 000°12'0 0.0
2017-Nov-19 16:00N 53°39' W 000°12'0 0.0
2017-Nov-19 15:30N 53°39' W 000°12'0 0.0
2017-Nov-19 15:00N 53°39' W 000°12'0 0.0
2017-Nov-19 14:30N 53°39' W 000°12'0 0.0
2017-Nov-19 14:00N 53°39' W 000°12'0 0.0
2017-Nov-19 13:27N 53°39' W 000°12'0 0.0
2017-Nov-19 13:00N 53°39' W 000°12'0 0.0
2017-Nov-19 12:30N 53°39' W 000°12'0 0.0
2017-Nov-19 12:00N 53°39' W 000°12'0 0.0
2017-Nov-19 11:30N 53°39' W 000°12'0 0.0
2017-Nov-19 11:00N 53°39' W 000°12'0 0.0
2017-Nov-19 10:30N 53°39' W 000°12'0 0.0
2017-Nov-19 10:00N 53°39' W 000°12'0 0.0
2017-Nov-19 09:30N 53°39' W 000°12'0 0.0
2017-Nov-19 09:00N 53°39' W 000°12'0 0.0
2017-Nov-19 08:30N 53°39' W 000°12'0 0.0
2017-Nov-19 08:00N 53°39' W 000°12'0 0.0
2017-Nov-19 07:30N 53°39' W 000°12'0 0.0
2017-Nov-19 07:00N 53°39' W 000°12'0 0.0
2017-Nov-19 06:30N 53°39' W 000°12'0 0.6
2017-Nov-19 06:00N 53°39' W 000°12'1 2.3
2017-Nov-19 05:30N 53°38' W 000°10'3 5.4
2017-Nov-19 05:00N 53°37' W 000°06'4 7.9
2017-Nov-19 04:30N 53°37' E 000°01'611.3
2017-Nov-19 04:00N 53°33' E 000°09'510.3
2017-Nov-19 03:30N 53°35' E 000°17'611.4
2017-Nov-19 03:00N 53°39' E 000°23'1 1.8
2017-Nov-19 02:30N 53°40' E 000°22'1 1.0
2017-Nov-19 02:00N 53°40' E 000°23'4 7.9
2017-Nov-19 01:28N 53°44' E 000°26'3 6.6
2017-Nov-19 00:59N 53°46' E 000°30'1 0.5
2017-Nov-18 23:38N 53°46' E 000°29'0 0.8
2017-Nov-18 23:27N 53°46' E 000°29'  

Dump ship's entire track history